Time;durP1;ratioP1;P1;durP2;ratioP2;P2;SDS_P1;SDS_P2;PMS_P1;PMS_P2;Temp;Humidity;BMP_temperature;BMP_pressure;BME280_temperature;BME280_humidity;BME280_pressure;Samples;Min_cycle;Max_cycle;Signal;HPM_P1;HPM_P2
2023/06/10 00:01:22;;;;;;;8.57;7.77;;;;;;;16.61;84.43;97770.28;5070474;28;20227;-81
2023/06/10 00:03:49;;;;;;;7.27;6.50;;;;;;;16.55;84.91;97764.72;5071949;28;20221;-81
2023/06/10 00:06:15;;;;;;;7.17;6.57;;;;;;;16.52;84.49;97755.19;5071936;28;20211;-80
2023/06/10 00:08:42;;;;;;;7.60;6.90;;;;;;;16.53;84.37;97761.38;5071811;28;20222;-78
2023/06/10 00:11:10;;;;;;;7.33;6.63;;;;;;;16.55;84.19;97768.22;5070951;28;20227;-81
2023/06/10 00:13:36;;;;;;;7.53;6.83;;;;;;;16.54;84.20;97761.22;5071555;28;20822;-81
2023/06/10 00:16:04;;;;;;;7.77;6.97;;;;;;;16.57;84.23;97760.91;5072020;28;20284;-82
2023/06/10 00:18:31;;;;;;;7.87;7.17;;;;;;;16.59;83.52;97760.75;5071793;28;20211;-79
2023/06/10 00:21:03;;;;;;;8.03;6.90;;;;;;;16.56;84.15;97761.91;5070710;28;20717;-80
2023/06/10 00:23:30;;;;;;;6.80;6.20;;;;;;;16.51;85.54;97766.84;5071614;28;20211;-79
2023/06/10 00:25:57;;;;;;;7.43;6.73;;;;;;;16.46;85.83;97768.31;5071433;28;20696;-80
2023/06/10 00:28:25;;;;;;;7.57;6.87;;;;;;;16.41;85.99;97758.06;5071404;28;20645;-81
2023/06/10 00:30:51;;;;;;;7.83;7.13;;;;;;;16.36;86.32;97765.66;5070687;28;20231;-82
2023/06/10 00:33:18;;;;;;;7.70;7.00;;;;;;;16.45;85.03;97759.44;5071758;28;20600;-81
2023/06/10 00:35:44;;;;;;;7.70;7.00;;;;;;;16.45;84.75;97764.78;5071806;28;20207;-82
2023/06/10 00:38:11;;;;;;;7.33;6.63;;;;;;;16.42;85.03;97757.09;5071074;28;20203;-82
2023/06/10 00:40:40;;;;;;;7.10;6.43;;;;;;;16.38;85.70;97758.38;5070620;28;20203;-79
2023/06/10 00:43:07;;;;;;;6.93;6.33;;;;;;;16.35;85.97;97758.63;5072667;28;20214;-79
2023/06/10 00:45:35;;;;;;;7.67;6.97;;;;;;;16.33;86.42;97765.94;5076678;28;20621;-78
2023/06/10 00:48:02;;;;;;;7.17;6.47;;;;;;;16.32;86.28;97766.09;5079411;28;20665;-79
2023/06/10 00:50:28;;;;;;;7.50;6.77;;;;;;;16.28;86.61;97757.56;5075203;28;20590;-79
2023/06/10 00:52:56;;;;;;;7.37;6.70;;;;;;;16.27;87.21;97755.06;5071089;28;20229;-79
2023/06/10 00:55:23;;;;;;;6.77;6.17;;;;;;;16.22;87.37;97752.81;5071087;28;20238;-80
2023/06/10 00:57:51;;;;;;;7.40;6.80;;;;;;;16.21;88.32;97756.47;5071248;28;20261;-80
2023/06/10 01:00:18;;;;;;;7.20;6.60;;;;;;;16.21;88.27;97755.66;5068135;28;20210;-80
2023/06/10 01:02:46;;;;;;;6.73;6.13;;;;;;;16.22;88.36;97757.34;5068210;28;20223;-79
2023/06/10 01:05:13;;;;;;;6.93;6.33;;;;;;;16.25;88.23;97762.34;5068056;28;20211;-79
2023/06/10 01:07:46;;;;;;;7.40;6.77;;;;;;;16.25;87.32;97757.03;5068642;28;20211;-79
2023/06/10 01:10:18;;;;;;;6.87;6.27;;;;;;;16.22;87.59;97758.16;5070558;28;20215;-80
2023/06/10 01:12:51;;;;;;;6.77;6.17;;;;;;;16.18;87.65;97761.28;5072592;28;20258;-80
2023/06/10 01:15:18;;;;;;;7.47;6.77;;;;;;;16.17;86.98;97752.47;5075332;28;20289;-81
2023/06/10 01:17:57;;;;;;;6.70;6.10;;;;;;;16.12;87.98;97751.22;5074971;28;20207;-79
2023/06/10 01:20:26;;;;;;;6.97;6.30;;;;;;;16.03;88.70;97757.44;5074145;28;20222;-80
2023/06/10 01:22:55;;;;;;;6.83;6.23;;;;;;;16.01;88.20;97759.41;5074944;28;20227;-80
2023/06/10 01:25:27;;;;;;;6.33;5.73;;;;;;;15.98;88.05;97753.53;5074842;28;20257;-78
2023/06/10 01:27:55;;;;;;;6.03;5.53;;;;;;;15.93;88.16;97753.13;5074897;28;21005;-79
2023/06/10 01:30:29;;;;;;;6.07;5.50;;;;;;;15.87;89.37;97751.06;5073695;28;20203;-79
2023/06/10 01:32:58;;;;;;;6.03;5.53;;;;;;;15.85;90.18;97758.38;5074065;28;20745;-80
2023/06/10 01:35:26;;;;;;;6.43;5.80;;;;;;;15.82;90.24;97759.50;5074529;28;20228;-81
2023/06/10 01:37:57;;;;;;;5.73;5.23;;;;;;;15.84;89.80;97752.22;5074538;28;20646;-79
2023/06/10 01:40:26;;;;;;;6.07;5.57;;;;;;;15.87;89.95;97761.72;5073790;28;20207;-79
2023/06/10 01:42:53;;;;;;;6.80;5.90;;;;;;;15.98;88.38;97755.22;5074505;28;20228;-81
2023/06/10 01:45:19;;;;;;;6.60;5.67;;;;;;;16.07;86.57;97752.66;5074336;28;20204;-80
2023/06/10 01:47:46;;;;;;;6.67;6.07;;;;;;;16.11;86.09;97754.88;5074324;28;20223;-79
2023/06/10 01:50:12;;;;;;;6.70;6.10;;;;;;;16.13;85.18;97758.22;5073472;28;20204;-79
2023/06/10 01:52:39;;;;;;;6.87;5.67;;;;;;;16.13;85.27;97753.72;5074183;28;20228;-79
2023/06/10 01:55:07;;;;;;;5.63;5.13;;;;;;;16.13;85.20;97752.06;5074114;28;20231;-78
2023/06/10 01:57:34;;;;;;;7.00;5.60;;;;;;;16.16;85.20;97752.59;5074180;28;20221;-79
2023/06/10 02:00:01;;;;;;;6.20;5.67;;;;;;;16.15;86.03;97762.41;5073296;28;20213;-79
2023/06/10 02:02:27;;;;;;;7.07;5.83;;;;;;;16.12;86.93;97761.06;5073994;28;20254;-79
2023/06/10 02:04:53;;;;;;;6.67;6.07;;;;;;;16.12;87.36;97761.88;5074076;28;20200;-79
2023/06/10 02:07:20;;;;;;;6.63;6.03;;;;;;;16.14;87.27;97765.22;5074307;28;20207;-79
2023/06/10 02:09:46;;;;;;;6.90;6.30;;;;;;;16.16;87.17;97769.41;5073175;28;20210;-80
2023/06/10 02:12:14;;;;;;;6.43;5.83;;;;;;;16.15;87.89;97761.59;5073757;28;20238;-79
2023/06/10 02:14:41;;;;;;;6.47;5.87;;;;;;;16.17;88.41;97765.78;5073798;28;20238;-80
2023/06/10 02:17:12;;;;;;;5.83;5.33;;;;;;;16.14;88.80;97768.75;5074089;28;20570;-79
2023/06/10 02:19:42;;;;;;;6.37;5.77;;;;;;;16.09;88.89;97771.00;5073132;28;20234;-79
2023/06/10 02:22:09;;;;;;;6.50;5.60;;;;;;;16.21;85.11;97767.16;5073672;28;20276;-79
2023/06/10 02:24:37;;;;;;;6.17;5.57;;;;;;;16.32;82.67;97758.94;5073082;28;20203;-79
2023/06/10 02:27:06;;;;;;;5.50;5.00;;;;;;;16.29;82.85;97764.59;5073495;28;20257;-79
2023/06/10 02:29:34;;;;;;;5.50;5.00;;;;;;;16.28;82.17;97762.88;5072885;28;20209;-79
2023/06/10 02:32:00;;;;;;;4.97;4.57;;;;;;;16.17;83.01;97770.28;5088055;22;20312;-81
2023/06/10 02:34:27;;;;;;;5.33;4.83;;;;;;;16.08;83.50;97775.66;5073613;28;20238;-81
2023/06/10 02:36:53;;;;;;;5.27;4.73;;;;;;;15.97;83.84;97775.84;5073561;28;20204;-81
2023/06/10 02:39:20;;;;;;;5.27;4.77;;;;;;;15.87;85.19;97788.38;5072944;28;20579;-81
2023/06/10 02:41:47;;;;;;;5.40;4.77;;;;;;;15.77;85.97;97782.25;5073760;28;20231;-81
2023/06/10 02:44:13;;;;;;;5.73;5.23;;;;;;;15.82;85.11;97783.50;5073206;28;20204;-81
2023/06/10 02:46:41;;;;;;;5.70;5.20;;;;;;;15.87;84.47;97788.38;5073133;28;20560;-81
2023/06/10 02:49:07;;;;;;;5.57;5.03;;;;;;;15.89;84.74;97779.25;5072782;28;20223;-81
2023/06/10 02:51:34;;;;;;;6.10;5.50;;;;;;;15.88;84.87;97784.75;5073101;28;20235;-81
2023/06/10 02:54:00;;;;;;;5.30;4.80;;;;;;;15.95;84.54;97785.81;5073179;28;20323;-81
2023/06/10 02:56:27;;;;;;;5.83;5.20;;;;;;;16.00;84.22;97780.91;5073672;28;20291;-81
2023/06/10 02:58:53;;;;;;;5.37;4.83;;;;;;;15.94;84.73;97778.81;5072995;28;20207;-81
2023/06/10 03:01:20;;;;;;;5.63;5.13;;;;;;;15.97;84.57;97783.84;5072269;28;20250;-81
2023/06/10 03:03:50;;;;;;;6.10;5.50;;;;;;;15.94;84.74;97789.47;5073072;28;20268;-81
2023/06/10 03:06:17;;;;;;;5.90;5.40;;;;;;;15.89;85.09;97786.41;5072968;28;20590;-81
2023/06/10 03:08:45;;;;;;;6.33;4.93;;;;;;;15.66;86.62;97791.28;5072578;28;20207;-81
2023/06/10 03:11:12;;;;;;;6.57;5.30;;;;;;;15.57;87.67;97796.63;5072000;28;20242;-81
2023/06/10 03:13:39;;;;;;;5.90;5.23;;;;;;;15.56;88.02;97794.94;5072840;28;20242;-81
2023/06/10 03:16:06;;;;;;;5.80;5.20;;;;;;;15.61;87.50;97792.69;5072640;28;20709;-80
2023/06/10 03:18:32;;;;;;;6.33;5.67;;;;;;;15.66;87.27;97796.59;5072440;28;20211;-81
2023/06/10 03:21:00;;;;;;;5.50;4.93;;;;;;;15.74;86.43;97796.72;5071349;28;20211;-81
2023/06/10 03:23:27;;;;;;;5.77;5.00;;;;;;;15.80;86.14;97803.28;5072242;28;20684;-81
2023/06/10 03:25:54;;;;;;;5.60;5.10;;;;;;;15.77;86.61;97808.91;5072536;28;20212;-81
2023/06/10 03:28:21;;;;;;;6.03;5.40;;;;;;;15.77;86.77;97809.72;5072512;28;20239;-81
2023/06/10 03:30:48;;;;;;;5.10;4.67;;;;;;;15.76;86.90;97813.38;5071833;28;20211;-81
2023/06/10 03:33:14;;;;;;;6.27;5.40;;;;;;;15.79;86.79;97817.59;5071920;28;20239;-81
2023/06/10 03:35:41;;;;;;;5.60;5.10;;;;;;;15.78;86.51;97810.56;5071101;28;20223;-81
2023/06/10 03:38:09;;;;;;;5.77;5.20;;;;;;;15.79;86.58;97818.44;5072064;28;20302;-81
2023/06/10 03:40:35;;;;;;;5.27;4.77;;;;;;;15.83;86.42;97814.47;5071624;28;20215;-81
2023/06/10 03:43:02;;;;;;;5.50;5.00;;;;;;;15.81;87.35;97815.59;5072193;28;20578;-81
2023/06/10 03:45:28;;;;;;;5.63;5.13;;;;;;;15.75;88.94;97819.69;5071993;28;20203;-81
2023/06/10 03:47:55;;;;;;;5.80;5.20;;;;;;;15.73;91.09;97829.69;5071950;28;20212;-81
2023/06/10 03:50:23;;;;;;;5.20;4.63;;;;;;;15.76;91.84;97823.22;5071181;28;20450;-81
2023/06/10 03:52:49;;;;;;;5.83;5.23;;;;;;;15.79;91.41;97825.56;5071922;28;20223;-81
2023/06/10 03:55:17;;;;;;;5.63;5.10;;;;;;;15.78;92.13;97832.75;5071849;28;20231;-81
2023/06/10 03:57:44;;;;;;;5.90;5.40;;;;;;;15.75;93.04;97840.16;5071783;28;20208;-81
2023/06/10 04:00:12;;;;;;;6.10;5.50;;;;;;;15.73;94.42;97850.13;5071407;28;20583;-81
2023/06/10 04:02:45;;;;;;;6.10;5.60;;;;;;;15.69;95.22;97846.06;5071556;28;20276;-81
2023/06/10 04:05:11;;;;;;;7.43;6.73;;;;;;;15.68;96.54;97844.41;5071958;28;20200;-81
2023/06/10 04:07:40;;;;;;;10.23;7.93;;;;;;;15.65;97.90;97842.03;5071718;28;20222;-81
2023/06/10 04:10:08;;;;;;;8.57;7.70;;;;;;;15.62;98.20;97839.66;5070889;28;20260;-81
2023/06/10 04:12:36;;;;;;;10.80;9.23;;;;;;;15.72;97.52;97843.13;5071598;28;20227;-81
2023/06/10 04:15:02;;;;;;;11.43;10.23;;;;;;;15.79;96.52;97838.91;5071288;28;20230;-81
2023/06/10 04:17:29;;;;;;;10.07;9.17;;;;;;;15.80;95.98;97835.25;5071651;28;20250;-81
2023/06/10 04:19:55;;;;;;;12.03;9.47;;;;;;;15.79;95.29;97831.75;5070990;28;20253;-81
2023/06/10 04:22:22;;;;;;;9.97;8.93;;;;;;;15.77;95.94;97835.56;5071312;28;20227;-81
2023/06/10 04:24:49;;;;;;;9.20;8.30;;;;;;;15.78;95.91;97829.22;5071464;28;20206;-81
2023/06/10 04:27:15;;;;;;;7.77;7.03;;;;;;;15.79;96.11;97833.56;5071377;28;20544;-81
2023/06/10 04:29:43;;;;;;;9.03;8.23;;;;;;;15.79;97.22;97849.56;5070726;28;20636;-81
2023/06/10 04:32:10;;;;;;;8.83;7.57;;;;;;;15.84;97.15;97836.66;5071027;28;20238;-81
2023/06/10 04:34:38;;;;;;;8.93;8.03;;;;;;;15.87;97.59;97849.66;5071230;28;20599;-81
2023/06/10 04:37:05;;;;;;;7.77;7.07;;;;;;;15.90;98.28;97849.38;5071271;28;20239;-81
2023/06/10 04:39:32;;;;;;;8.53;7.73;;;;;;;15.94;98.06;97850.78;5070757;28;20508;-81
2023/06/10 04:41:58;;;;;;;6.87;6.17;;;;;;;16.00;96.81;97845.69;5070986;28;20230;-81
2023/06/10 04:44:26;;;;;;;6.00;5.40;;;;;;;16.10;93.90;97836.66;5071064;28;20203;-81
2023/06/10 04:46:54;;;;;;;6.97;5.40;;;;;;;16.21;92.57;97847.16;5071042;28;20208;-81
2023/06/10 04:49:21;;;;;;;6.03;5.53;;;;;;;16.32;90.66;97838.97;5070537;28;20745;-80
2023/06/10 04:51:47;;;;;;;5.73;5.13;;;;;;;16.37;89.43;97841.16;5071101;28;20238;-81
2023/06/10 04:54:14;;;;;;;5.93;5.33;;;;;;;16.46;89.16;97841.16;5071217;28;20663;-81
2023/06/10 04:56:40;;;;;;;6.17;5.60;;;;;;;16.65;88.16;97834.88;5071047;28;20223;-81
2023/06/10 04:59:07;;;;;;;5.93;5.40;;;;;;;16.81;88.55;97841.19;5070487;28;20215;-81
2023/06/10 05:01:33;;;;;;;5.43;4.93;;;;;;;17.06;89.11;97843.13;5071209;28;20227;-81
2023/06/10 05:04:01;;;;;;;5.73;5.13;;;;;;;17.63;88.07;97845.28;5071193;28;20692;-81
2023/06/10 05:06:28;;;;;;;6.63;5.93;;;;;;;18.33;85.33;97845.03;5071223;28;20321;-81
2023/06/10 05:08:54;;;;;;;6.67;6.07;;;;;;;19.09;82.38;97838.53;5070986;28;20218;-81
2023/06/10 05:11:21;;;;;;;6.70;6.00;;;;;;;19.82;79.15;97829.50;5070247;28;20223;-81
2023/06/10 05:13:47;;;;;;;6.07;5.50;;;;;;;20.40;75.62;97822.00;5070922;28;20222;-81
2023/06/10 05:16:14;;;;;;;6.13;5.50;;;;;;;20.88;71.35;97811.03;5071068;28;20318;-81
2023/06/10 05:18:41;;;;;;;6.50;5.90;;;;;;;21.31;67.85;97810.38;5070902;28;20215;-81
2023/06/10 05:21:11;;;;;;;6.47;5.87;;;;;;;21.65;66.80;97809.91;5070291;28;20215;-81
2023/06/10 05:23:38;;;;;;;6.47;5.87;;;;;;;22.02;65.61;97810.75;5070889;28;20211;-81
2023/06/10 05:26:04;;;;;;;6.80;6.20;;;;;;;22.34;65.38;97818.44;5070561;28;20200;-81
2023/06/10 05:28:30;;;;;;;6.23;5.73;;;;;;;22.65;63.71;97815.53;5070917;28;20207;-81
2023/06/10 05:30:57;;;;;;;5.63;5.17;;;;;;;22.92;62.47;97810.25;5069845;28;20212;-81
2023/06/10 05:33:23;;;;;;;5.93;5.43;;;;;;;23.11;59.87;97806.94;5070481;28;20224;-81
2023/06/10 05:35:50;;;;;;;5.73;5.23;;;;;;;23.37;58.26;97801.84;5070388;28;20227;-81
2023/06/10 05:38:18;;;;;;;5.73;5.23;;;;;;;23.65;57.10;97794.59;5070772;28;20879;-81
2023/06/10 05:40:44;;;;;;;6.50;5.30;;;;;;;23.89;55.68;97787.97;5069793;28;20210;-82
2023/06/10 05:43:11;;;;;;;5.40;5.00;;;;;;;24.12;54.09;97781.28;5070789;28;20706;-81
2023/06/10 05:45:40;;;;;;;5.70;5.20;;;;;;;24.28;54.05;97780.94;5070904;28;20211;-82
2023/06/10 05:48:06;;;;;;;5.53;5.00;;;;;;;24.44;53.30;97779.78;5070550;28;20207;-82
2023/06/10 05:50:38;;;;;;;6.00;5.50;;;;;;;24.61;52.54;97781.09;5069511;28;20211;-81
2023/06/10 05:53:06;;;;;;;5.60;5.17;;;;;;;24.77;52.81;97787.03;5070287;28;20231;-81
2023/06/10 05:55:34;;;;;;;5.50;5.00;;;;;;;24.95;52.59;97794.53;5070116;28;20309;-81
2023/06/10 05:58:01;;;;;;;6.00;5.50;;;;;;;25.21;51.17;97784.63;5070599;28;20664;-82
2023/06/10 06:00:27;;;;;;;5.50;5.00;;;;;;;25.29;50.54;97789.84;5072138;28;20215;-81
2023/06/10 06:02:57;;;;;;;5.63;5.07;;;;;;;25.40;50.36;97786.53;5074128;28;20234;-81
2023/06/10 06:05:23;;;;;;;5.17;4.70;;;;;;;25.53;50.71;97786.56;5073903;28;20626;-81
2023/06/10 06:07:50;;;;;;;5.30;4.80;;;;;;;25.67;49.41;97773.84;5073856;28;20215;-81
2023/06/10 06:10:17;;;;;;;5.67;5.17;;;;;;;25.72;49.23;97774.88;5073243;28;20559;-81
2023/06/10 06:12:45;;;;;;;5.67;5.03;;;;;;;25.87;49.10;97780.94;5073876;28;20232;-78
2023/06/10 06:15:12;;;;;;;5.43;4.90;;;;;;;25.93;49.88;97787.41;5074113;28;20239;-81
2023/06/10 06:17:41;;;;;;;5.10;4.70;;;;;;;26.07;50.23;97798.00;5074233;28;20219;-80
2023/06/10 06:20:09;;;;;;;5.03;4.47;;;;;;;26.22;48.74;97785.03;5072822;28;20203;-75
2023/06/10 06:22:35;;;;;;;5.30;4.90;;;;;;;26.20;49.16;97787.13;5073591;28;20227;-80
2023/06/10 06:25:02;;;;;;;5.40;4.80;;;;;;;26.30;48.81;97787.53;5073604;28;20208;-79
2023/06/10 06:27:29;;;;;;;5.57;5.07;;;;;;;26.35;48.24;97779.63;5073774;28;20203;-80
2023/06/10 06:29:56;;;;;;;4.97;4.57;;;;;;;26.40;48.31;97790.63;5072981;28;20298;-79
2023/06/10 06:32:24;;;;;;;4.93;4.43;;;;;;;26.47;48.71;97791.47;5073123;28;20243;-80
2023/06/10 06:34:54;;;;;;;5.30;4.60;;;;;;;26.60;48.61;97794.16;5073406;28;20720;-79
2023/06/10 06:37:21;;;;;;;5.60;5.10;;;;;;;26.59;48.42;97788.94;5073621;28;20222;-80
2023/06/10 06:39:47;;;;;;;5.27;4.87;;;;;;;26.73;48.56;97793.25;5072817;28;20211;-80
2023/06/10 06:42:14;;;;;;;5.50;5.00;;;;;;;26.73;48.48;97806.81;5073173;28;20227;-79
2023/06/10 06:44:40;;;;;;;4.80;4.40;;;;;;;26.85;49.57;97808.63;5073484;28;20215;-79
2023/06/10 06:47:10;;;;;;;5.10;4.70;;;;;;;26.96;47.67;97799.81;5073216;28;20215;-79
2023/06/10 06:49:37;;;;;;;5.00;4.60;;;;;;;26.95;47.98;97798.13;5072657;28;20689;-79
2023/06/10 06:52:04;;;;;;;5.07;4.67;;;;;;;27.08;48.55;97806.22;5073446;28;20627;-79
2023/06/10 06:54:31;;;;;;;5.17;4.70;;;;;;;27.13;47.80;97795.53;5073060;28;20605;-78
2023/06/10 06:56:57;;;;;;;4.73;4.33;;;;;;;27.15;47.52;97798.88;5072950;28;20231;-79
2023/06/10 06:59:26;;;;;;;4.83;4.40;;;;;;;27.03;47.36;97789.78;5072455;28;20234;-79
2023/06/10 07:01:53;;;;;;;4.97;4.57;;;;;;;27.02;47.56;97801.66;5072705;28;20253;-79
2023/06/10 07:04:22;;;;;;;5.27;4.87;;;;;;;26.81;48.01;97807.41;5072863;28;20207;-79
2023/06/10 07:06:48;;;;;;;5.30;4.80;;;;;;;26.36;48.24;97802.94;5072876;28;20301;-79
2023/06/10 07:09:15;;;;;;;6.07;4.93;;;;;;;25.90;49.23;97802.19;5071962;28;20207;-79
2023/06/10 07:11:41;;;;;;;5.30;4.77;;;;;;;25.39;50.87;97820.06;5072917;28;20233;-80
2023/06/10 07:14:08;;;;;;;6.90;5.40;;;;;;;24.82;51.75;97829.66;5072758;28;20542;-81
2023/06/10 07:16:35;;;;;;;6.03;5.40;;;;;;;24.12;53.52;97840.69;5072504;28;20231;-78
2023/06/10 07:19:01;;;;;;;5.70;5.20;;;;;;;23.61;55.82;97844.63;5072649;28;20210;-78
2023/06/10 07:21:32;;;;;;;5.60;5.10;;;;;;;23.31;56.83;97858.41;5072642;28;20227;-79
2023/06/10 07:23:58;;;;;;;5.73;5.23;;;;;;;23.28;57.47;97851.53;5072538;28;20697;-76
2023/06/10 07:26:25;;;;;;;6.17;5.13;;;;;;;23.17;57.66;97852.03;5072665;28;20204;-87
2023/06/10 07:28:52;;;;;;;6.50;4.90;;;;;;;23.01;57.77;97854.09;5072657;28;20590;-87
2023/06/10 07:31:18;;;;;;;5.20;4.70;;;;;;;22.96;59.04;97859.22;5072102;28;20228;-80
2023/06/10 07:33:45;;;;;;;5.83;5.17;;;;;;;22.96;60.80;97865.47;5072667;28;20207;-86
2023/06/10 07:36:11;;;;;;;5.97;5.47;;;;;;;22.98;64.35;97887.66;5072518;28;20234;-89
2023/06/10 07:38:42;;;;;;;6.23;5.50;;;;;;;22.98;60.68;97857.19;5072505;28;20218;-86
2023/06/10 07:41:10;;;;;;;5.80;5.17;;;;;;;22.98;60.34;97854.50;5071719;28;20235;-90
2023/06/10 07:43:37;;;;;;;5.60;5.10;;;;;;;23.10;62.63;97864.59;5072808;28;20298;-91
2023/06/10 07:46:05;;;;;;;6.07;5.57;;;;;;;23.33;60.93;97864.44;5072381;28;20215;-86
2023/06/10 07:48:31;;;;;;;6.23;5.70;;;;;;;23.24;61.21;97855.66;5072543;28;20207;-91
2023/06/10 07:50:58;;;;;;;5.83;5.20;;;;;;;23.36;59.92;97856.78;5078915;28;20203;-86
2023/06/10 07:53:24;;;;;;;5.90;5.40;;;;;;;23.33;60.36;97857.19;5080244;28;20212;-90
2023/06/10 07:55:52;;;;;;;5.77;5.27;;;;;;;23.40;60.42;97863.50;5071756;28;20730;-88
2023/06/10 07:58:19;;;;;;;6.30;5.77;;;;;;;23.40;59.47;97850.00;5072050;28;20207;-91
2023/06/10 08:00:45;;;;;;;6.27;5.73;;;;;;;23.48;60.06;97857.94;5071485;28;20211;-89
2023/06/10 08:03:12;;;;;;;5.80;5.30;;;;;;;23.33;59.72;97849.09;5071901;28;20253;-90
2023/06/10 08:05:40;;;;;;;6.20;5.60;;;;;;;23.45;61.79;97869.16;5071899;28;20210;-90
2023/06/10 08:08:06;;;;;;;5.47;4.97;;;;;;;23.54;59.34;97849.09;5071819;28;20211;-90
2023/06/10 08:10:33;;;;;;;6.57;5.70;;;;;;;23.67;61.11;97857.31;5070670;28;20214;-91
2023/06/10 08:13:00;;;;;;;6.10;5.50;;;;;;;23.64;59.53;97846.91;5071736;28;20223;-90
2023/06/10 08:15:27;;;;;;;6.07;5.47;;;;;;;23.68;61.14;97855.44;5071695;28;20211;-90
2023/06/10 08:17:53;;;;;;;7.00;6.03;;;;;;;23.81;62.99;97863.66;5071664;28;20210;-90
2023/06/10 08:20:20;;;;;;;6.03;5.53;;;;;;;23.99;64.07;97864.88;5070967;28;20207;-90
2023/06/10 08:22:46;;;;;;;6.33;5.73;;;;;;;24.20;63.71;97858.59;5070657;28;20239;-91
2023/06/10 08:25:13;;;;;;;6.23;5.63;;;;;;;24.25;59.10;97829.94;5071225;28;20214;-89
2023/06/10 08:27:39;;;;;;;6.40;5.80;;;;;;;24.28;57.96;97832.28;5071262;28;20217;-84
2023/06/10 08:30:10;;;;;;;6.23;5.63;;;;;;;24.46;60.60;97850.66;5070553;28;20207;-81
2023/06/10 08:32:37;;;;;;;6.03;5.50;;;;;;;24.57;60.58;97845.53;5086191;22;20569;-82
2023/06/10 08:35:04;;;;;;;6.00;5.50;;;;;;;24.63;58.82;97833.09;5071608;28;20238;-82
2023/06/10 08:37:30;;;;;;;6.10;5.60;;;;;;;24.63;58.26;97833.94;5070315;28;20282;-80
2023/06/10 08:39:57;;;;;;;5.87;5.37;;;;;;;24.57;57.19;97818.50;5068143;28;20208;-79
2023/06/10 08:42:26;;;;;;;6.00;5.50;;;;;;;24.69;59.57;97835.81;5070441;28;20239;-80
2023/06/10 08:44:55;;;;;;;6.00;5.50;;;;;;;24.90;62.58;97856.50;5071380;28;20207;-77
2023/06/10 08:47:25;;;;;;;5.70;5.27;;;;;;;25.04;60.07;97848.25;5084479;28;20199;-76
2023/06/10 08:49:53;;;;;;;6.10;5.50;;;;;;;25.13;59.91;97841.63;5090655;28;20202;-77
2023/06/10 08:52:21;;;;;;;6.10;5.50;;;;;;;25.18;57.08;97822.88;5091212;28;20237;-78
2023/06/10 08:54:53;;;;;;;5.83;5.33;;;;;;;25.31;58.77;97843.78;5091430;28;20213;-77
2023/06/10 08:57:21;;;;;;;6.70;6.10;;;;;;;25.39;58.62;97836.31;5091442;28;20234;-79
2023/06/10 08:59:48;;;;;;;6.20;5.47;;;;;;;25.42;57.73;97822.34;5090527;28;20210;-78
2023/06/10 09:02:19;;;;;;;6.70;5.73;;;;;;;25.54;56.31;97817.97;5091339;28;20227;-79
2023/06/10 09:04:48;;;;;;;6.43;5.43;;;;;;;25.61;54.02;97791.75;5091153;28;20591;-76
2023/06/10 09:07:15;;;;;;;5.40;5.00;;;;;;;25.69;52.18;97780.72;5091529;28;20207;-78
2023/06/10 09:09:43;;;;;;;5.50;5.00;;;;;;;25.90;54.16;97799.47;5089669;28;20563;-78
2023/06/10 09:12:10;;;;;;;6.20;5.67;;;;;;;26.00;54.72;97810.72;5091199;28;20242;-79
2023/06/10 09:14:37;;;;;;;5.87;5.10;;;;;;;25.88;55.42;97808.81;5090134;28;20202;-78
2023/06/10 09:17:04;;;;;;;5.83;5.23;;;;;;;25.98;55.86;97820.91;5088309;28;20296;-79
2023/06/10 09:19:31;;;;;;;5.50;5.10;;;;;;;26.10;53.19;97797.56;5087683;28;20205;-80
2023/06/10 09:21:59;;;;;;;5.87;5.37;;;;;;;26.14;54.78;97798.81;5088230;28;20842;-79
2023/06/10 09:24:26;;;;;;;6.00;5.40;;;;;;;26.32;54.60;97812.53;5090608;28;20210;-79
2023/06/10 09:27:03;;;;;;;5.57;5.07;;;;;;;26.44;52.43;97789.16;5091139;28;20203;-79
2023/06/10 09:29:29;;;;;;;5.67;5.10;;;;;;;26.24;53.47;97807.34;5087608;28;20230;-79
2023/06/10 09:31:56;;;;;;;5.73;5.07;;;;;;;25.93;51.57;97772.00;5087937;28;20230;-79
2023/06/10 09:34:26;;;;;;;5.10;4.70;;;;;;;25.98;52.00;97788.41;5089104;28;20217;-79
2023/06/10 09:36:54;;;;;;;5.33;4.80;;;;;;;26.10;52.61;97784.03;5093629;28;20230;-79
2023/06/10 09:39:24;;;;;;;5.30;4.90;;;;;;;26.19;54.07;97800.88;5094116;28;20221;-80
2023/06/10 09:41:51;;;;;;;5.27;4.87;;;;;;;26.19;53.02;97790.06;5093406;28;20234;-80
2023/06/10 09:44:19;;;;;;;5.87;5.37;;;;;;;25.98;48.32;97753.22;5092027;28;20215;-80
2023/06/10 09:46:46;;;;;;;5.67;5.17;;;;;;;25.57;49.59;97766.16;5092203;28;20211;-80
2023/06/10 09:49:13;;;;;;;5.80;5.13;;;;;;;25.24;52.18;97778.81;5072341;28;20208;-80
2023/06/10 09:51:50;;;;;;;5.90;5.33;;;;;;;25.09;52.74;97791.69;5074386;28;20234;-80
2023/06/10 09:54:17;;;;;;;5.93;5.43;;;;;;;24.98;53.27;97788.72;5073594;28;20669;-79
2023/06/10 09:56:47;;;;;;;5.87;5.27;;;;;;;25.11;58.02;97827.44;5074390;28;20235;-77
2023/06/10 09:59:14;;;;;;;6.03;5.43;;;;;;;25.39;56.33;97809.25;5073579;28;20191;-77
2023/06/10 10:01:41;;;;;;;5.90;5.37;;;;;;;25.66;49.62;97755.97;5074190;28;20223;-77
2023/06/10 10:04:07;;;;;;;5.73;5.23;;;;;;;25.75;50.95;97771.78;5074190;28;20212;-77
2023/06/10 10:06:35;;;;;;;5.87;5.23;;;;;;;25.97;53.51;97792.19;5074036;28;20559;-77
2023/06/10 10:09:03;;;;;;;6.00;5.40;;;;;;;26.31;52.39;97778.38;5073919;28;20239;-77
2023/06/10 10:11:32;;;;;;;5.60;5.10;;;;;;;26.44;50.22;97747.66;5073053;28;20674;-76
2023/06/10 10:14:01;;;;;;;5.77;5.20;;;;;;;26.58;52.57;97787.28;5074301;28;20208;-77
2023/06/10 10:16:34;;;;;;;6.13;5.17;;;;;;;26.79;53.50;97793.22;5073779;28;20243;-77
2023/06/10 10:19:08;;;;;;;5.23;4.83;;;;;;;26.90;52.31;97789.00;5073905;28;20207;-77
2023/06/10 10:21:40;;;;;;;5.90;5.40;;;;;;;26.94;52.19;97782.91;5073568;28;20210;-77
2023/06/10 10:24:13;;;;;;;6.27;5.67;;;;;;;27.02;50.14;97759.06;5073279;28;20207;-77
2023/06/10 10:26:40;;;;;;;5.95;5.50;;;;;;;27.13;53.93;97799.09;5073742;28;20219;-77
2023/06/10 10:29:15;;;;;;;6.60;6.00;;;;;;;27.18;53.47;97786.78;5073281;28;20230;-77
2023/06/10 10:31:44;;;;;;;5.80;5.30;;;;;;;27.23;51.19;97759.81;5073362;28;20235;-77
2023/06/10 10:34:16;;;;;;;6.15;5.55;;;;;;;27.33;50.73;97752.03;5073517;28;20217;-77
2023/06/10 10:36:43;;;;;;;5.90;5.32;;;;;;;27.36;48.74;97730.69;5073053;28;20231;-77
2023/06/10 10:39:12;;;;;;;5.97;5.47;;;;;;;27.36;48.80;97741.56;5072849;28;20211;-78
2023/06/10 10:41:39;;;;;;;7.35;5.78;;;;;;;27.44;50.45;97755.69;5073289;28;20204;-78
2023/06/10 10:44:07;;;;;;;5.15;4.65;;;;;;;27.56;50.67;97769.38;5073374;28;20572;-77
2023/06/10 10:46:43;;;;;;;6.07;5.50;;;;;;;27.68;49.72;97756.72;5072385;28;20505;-77
2023/06/10 10:49:11;;;;;;;5.30;4.90;;;;;;;27.62;48.12;97735.91;5072349;28;20223;-76
2023/06/10 10:51:37;;;;;;;5.78;5.28;;;;;;;27.44;48.77;97743.97;5072575;28;20588;-75
2023/06/10 10:54:13;;;;;;;5.37;4.87;;;;;;;27.30;48.03;97737.00;5073120;28;20215;-77
2023/06/10 10:56:40;;;;;;;5.72;5.32;;;;;;;27.32;47.91;97729.47;5071645;28;20235;-77
2023/06/10 10:59:07;;;;;;;5.28;4.78;;;;;;;27.34;50.98;97760.75;5069932;28;20290;-77
2023/06/10 11:01:45;;;;;;;5.57;4.85;;;;;;;27.37;48.51;97737.78;5070143;28;20269;-77
2023/06/10 11:04:12;;;;;;;5.10;4.70;;;;;;;27.54;49.11;97738.91;5070705;28;20215;-77
2023/06/10 11:06:39;;;;;;;5.43;5.03;;;;;;;27.78;48.62;97732.66;5073081;28;20204;-77
2023/06/10 11:09:26;;;;;;;5.03;4.53;;;;;;;28.01;45.22;97701.06;5072621;28;20218;-77
2023/06/10 11:11:52;;;;;;;5.00;4.60;;;;;;;28.10;48.28;97731.47;5072693;28;20736;-77
2023/06/10 11:14:28;;;;;;;5.10;4.70;;;;;;;28.05;46.94;97725.88;5072795;28;20208;-76
2023/06/10 11:16:58;;;;;;;5.45;4.85;;;;;;;28.03;44.75;97695.41;5072729;28;20356;-76
2023/06/10 11:19:35;;;;;;;5.10;4.35;;;;;;;28.09;46.38;97716.25;5071637;28;20215;-76
2023/06/10 11:22:03;;;;;;;4.97;4.57;;;;;;;28.22;47.16;97726.97;5072297;28;20284;-76
2023/06/10 11:24:29;;;;;;;4.72;4.32;;;;;;;28.40;46.68;97716.13;5072315;28;20212;-77
2023/06/10 11:27:15;;;;;;;4.95;4.35;;;;;;;28.47;45.60;97698.66;5072654;28;20203;-76
2023/06/10 11:29:56;;;;;;;4.85;4.45;;;;;;;28.48;43.43;97683.16;5071836;28;20207;-77
2023/06/10 11:32:24;;;;;;;5.00;4.60;;;;;;;28.64;45.33;97709.75;5071961;28;20235;-75
2023/06/10 11:34:53;;;;;;;4.55;4.25;;;;;;;28.72;45.28;97695.81;5072247;28;20246;-75
2023/06/10 11:37:20;;;;;;;5.22;4.82;;;;;;;28.68;43.97;97690.00;5072435;28;20250;-77